createdAt,value
2022-09-15T00:03:05.665Z,98863.36
2022-09-15T00:08:08.629Z,98858.92
2022-09-15T00:13:11.333Z,98851.73
2022-09-15T00:18:14.382Z,98849.98
2022-09-15T00:23:17.748Z,98852.25
2022-09-15T00:28:22.056Z,98854.66
2022-09-15T00:33:25.047Z,98860.45
2022-09-15T00:38:27.792Z,98858.20
2022-09-15T00:43:48.817Z,98855.04
2022-09-15T00:48:57.976Z,98853.95
2022-09-15T00:54:02.827Z,98849.20
2022-09-15T00:59:10.278Z,98849.92
2022-09-15T01:04:15.732Z,98849.27
2022-09-15T01:09:23.918Z,98845.98
2022-09-15T01:14:26.665Z,98846.76
2022-09-15T01:20:06.823Z,98841.70
2022-09-15T01:25:40.210Z,98837.48
2022-09-15T01:30:51.513Z,98836.77
2022-09-15T01:36:19.913Z,98831.24
2022-09-15T01:41:43.102Z,98822.65
2022-09-15T01:46:50.422Z,98816.96
2022-09-15T01:51:54.849Z,98810.11
2022-09-15T01:56:57.796Z,98808.17
2022-09-15T02:02:12.660Z,98805.84
2022-09-15T02:07:32.035Z,98803.08
2022-09-15T02:12:47.938Z,98804.21
2022-09-15T02:17:54.362Z,98803.34
2022-09-15T02:22:57.413Z,98798.13
2022-09-15T02:28:05.690Z,98798.50
2022-09-15T02:33:14.903Z,98793.67
2022-09-15T02:38:17.586Z,98791.80
2022-09-15T02:43:20.295Z,98787.23
2022-09-15T02:48:23.719Z,98789.59
2022-09-15T02:53:26.409Z,98788.02
2022-09-15T02:58:29.110Z,98790.45
2022-09-15T03:03:32.556Z,98795.29
2022-09-15T03:08:35.329Z,98792.14
2022-09-15T03:13:38.742Z,98787.46
2022-09-15T03:18:42.261Z,98782.52
2022-09-15T03:23:45.606Z,98784.59
2022-09-15T03:28:48.475Z,98779.79
2022-09-15T03:33:54.858Z,98777.81
2022-09-15T03:39:00.534Z,98779.82
2022-09-15T03:44:03.432Z,98780.89
2022-09-15T03:49:06.161Z,98774.41
2022-09-15T03:54:09.077Z,98765.59
2022-09-15T03:59:11.781Z,98769.19
2022-09-15T04:04:15.318Z,98768.73
2022-09-15T04:09:20.276Z,98767.10
2022-09-15T04:14:23.206Z,98765.69
2022-09-15T04:19:25.979Z,98766.48
2022-09-15T04:24:28.690Z,98764.00
2022-09-15T04:29:31.314Z,98759.23
2022-09-15T04:34:38.071Z,98761.21
2022-09-15T04:39:43.344Z,98761.34
2022-09-15T04:44:46.186Z,98762.77
2022-09-15T04:49:49.067Z,98763.69
2022-09-15T04:54:51.777Z,98763.63
2022-09-15T04:59:54.416Z,98767.79
2022-09-15T05:04:57.460Z,98767.53
2022-09-15T05:10:00.130Z,98763.64
2022-09-15T05:15:04.597Z,98764.53
2022-09-15T05:20:07.632Z,98765.54
2022-09-15T05:25:10.844Z,98760.36
2022-09-15T05:30:36.635Z,98758.13
2022-09-15T05:35:36.701Z,98750.52
2022-09-15T05:40:39.357Z,98749.19
2022-09-15T05:45:45.166Z,98747.40
2022-09-15T05:50:53.070Z,98753.94
2022-09-15T05:56:02.070Z,98750.92
2022-09-15T06:01:11.691Z,98747.83
2022-09-15T06:06:15.225Z,98744.13
2022-09-15T06:11:20.246Z,98741.07
2022-09-15T06:16:24.499Z,98736.77
2022-09-15T06:21:29.334Z,98732.25
2022-09-15T06:26:32.038Z,98734.48
2022-09-15T06:31:35.838Z,98725.94
2022-09-15T06:36:39.144Z,98724.64
2022-09-15T06:42:01.242Z,98721.89
2022-09-15T06:47:05.367Z,98727.02
2022-09-15T06:52:08.536Z,98721.95
2022-09-15T06:57:11.204Z,98728.60
2022-09-15T07:02:13.977Z,98730.86
2022-09-15T07:07:16.829Z,98729.61
2022-09-15T07:12:19.492Z,98733.43
2022-09-15T07:17:22.172Z,98739.20
2022-09-15T07:22:25.006Z,98739.02
2022-09-15T07:27:31.768Z,98741.13
2022-09-15T07:32:34.779Z,98738.52
2022-09-15T07:37:37.471Z,98733.97
2022-09-15T07:42:44.340Z,98735.60
2022-09-15T07:47:50.178Z,98733.27
2022-09-15T07:52:58.300Z,98724.83
2022-09-15T07:58:01.586Z,98719.00
2022-09-15T08:03:05.108Z,98721.66
2022-09-15T08:08:08.173Z,98711.61
2022-09-15T08:13:10.880Z,98707.41
2022-09-15T08:18:14.431Z,98706.30
2022-09-15T08:23:17.633Z,98703.38
2022-09-15T08:28:20.652Z,98698.52
2022-09-15T08:33:24.056Z,98703.95
2022-09-15T08:38:26.985Z,98709.91
2022-09-15T08:43:36.422Z,98707.25
2022-09-15T08:49:13.171Z,98706.45
2022-09-15T08:54:29.256Z,98707.77
2022-09-15T08:59:35.738Z,98701.39
2022-09-15T09:04:54.732Z,98698.65
2022-09-15T09:10:13.438Z,98706.10
2022-09-15T09:15:28.100Z,98709.59
2022-09-15T09:21:12.568Z,98710.13
2022-09-15T09:26:15.668Z,98700.86
2022-09-15T09:31:22.944Z,98696.14
2022-09-15T09:36:27.456Z,98698.13
2022-09-15T09:41:37.684Z,98692.11
2022-09-15T09:46:41.434Z,98696.75
2022-09-15T09:51:55.783Z,98704.52
2022-09-15T09:57:14.027Z,98697.46
2022-09-15T10:02:22.825Z,98695.41
2022-09-15T10:07:26.890Z,98701.06
2022-09-15T10:12:38.713Z,98698.50
2022-09-15T10:17:47.005Z,98697.19
2022-09-15T10:22:50.378Z,98702.13
2022-09-15T10:28:15.816Z,98705.27
2022-09-15T10:33:24.541Z,98716.09
2022-09-15T10:38:39.435Z,98714.64
2022-09-15T10:44:06.476Z,98713.95
2022-09-15T10:49:18.068Z,98715.61
2022-09-15T10:54:41.365Z,98718.61
2022-09-15T10:59:50.449Z,98714.86
2022-09-15T11:05:17.921Z,98710.60
2022-09-15T11:10:29.503Z,98705.05
2022-09-15T11:15:41.348Z,98697.10
2022-09-15T11:20:59.215Z,98697.08
2022-09-15T11:26:10.623Z,98695.88
2022-09-15T11:31:16.297Z,98698.19
2022-09-15T11:36:43.580Z,98701.20
2022-09-15T11:41:56.636Z,98705.80
2022-09-15T11:47:30.551Z,98700.38
2022-09-15T11:52:57.761Z,98701.25
2022-09-15T11:58:09.271Z,98700.68
2022-09-15T12:03:32.889Z,98695.40
2022-09-15T12:08:46.890Z,98691.01
2022-09-15T12:13:50.729Z,98685.59
2022-09-15T12:19:13.295Z,98685.33
2022-09-15T12:24:31.058Z,98677.59
2022-09-15T12:29:42.090Z,98680.47
2022-09-15T12:34:59.158Z,98681.23
2022-09-15T12:40:04.806Z,98679.84
2022-09-15T12:45:23.003Z,98666.63
2022-09-15T12:50:34.346Z,98666.23
2022-09-15T12:55:38.430Z,98659.81
2022-09-15T13:01:07.269Z,98670.46
2022-09-15T13:06:10.986Z,98667.92
2022-09-15T13:11:37.551Z,98671.13
2022-09-15T13:16:41.166Z,98662.02
2022-09-15T13:21:54.463Z,98669.52
2022-09-15T13:26:57.965Z,98657.28
2022-09-15T13:32:32.582Z,98663.42
2022-09-15T13:38:16.832Z,98671.52
2022-09-15T13:43:41.141Z,98665.09
2022-09-15T13:48:55.630Z,98655.29
2022-09-15T13:54:17.182Z,98654.77
2022-09-15T13:59:25.293Z,98652.06
2022-09-15T14:04:31.942Z,98644.55
2022-09-15T14:09:47.589Z,98651.42
2022-09-15T14:14:59.014Z,98648.19
2022-09-15T14:20:04.326Z,98661.42
2022-09-15T14:25:14.935Z,98665.20
2022-09-15T14:30:24.519Z,98672.58
2022-09-15T14:35:31.890Z,98674.33
2022-09-15T14:40:39.206Z,98674.23
2022-09-15T14:51:22.548Z,98690.31
2022-09-15T14:56:30.016Z,98705.63
2022-09-15T15:01:38.205Z,98703.25
2022-09-15T15:07:27.659Z,98709.00
2022-09-15T15:12:34.959Z,98707.06
2022-09-15T15:17:42.130Z,98711.52
2022-09-15T15:22:46.364Z,98707.50
2022-09-15T15:27:54.209Z,98702.08
2022-09-15T15:33:19.597Z,98687.11
2022-09-15T15:38:25.437Z,98693.93
2022-09-15T15:43:28.958Z,98689.95
2022-09-15T15:48:38.127Z,98684.98
2022-09-15T15:53:42.811Z,98688.27
2022-09-15T15:58:45.484Z,98694.71
2022-09-15T16:03:48.127Z,98691.29
2022-09-15T16:08:52.240Z,98694.55
2022-09-15T16:13:54.913Z,98698.26
2022-09-15T16:18:57.583Z,98695.55
2022-09-15T16:24:00.436Z,98690.92
2022-09-15T16:29:03.795Z,98692.46
2022-09-15T16:34:06.562Z,98700.67
2022-09-15T16:39:09.913Z,98695.58
2022-09-15T16:44:18.283Z,98694.77
2022-09-15T16:49:21.813Z,98698.02
2022-09-15T16:54:24.614Z,98695.41
2022-09-15T16:59:27.267Z,98702.00
2022-09-15T17:04:29.978Z,98703.55
2022-09-15T17:09:32.710Z,98698.29
2022-09-15T17:14:35.338Z,98703.84
2022-09-15T17:19:38.106Z,98705.27
2022-09-15T17:24:40.730Z,98705.39
2022-09-15T17:29:43.495Z,98713.73
2022-09-15T17:34:46.817Z,98709.08
2022-09-15T17:39:52.061Z,98715.31
2022-09-15T17:44:57.196Z,98715.11
2022-09-15T17:49:59.847Z,98716.77
2022-09-15T17:55:02.834Z,98715.33
2022-09-15T18:00:06.558Z,98710.73
2022-09-15T18:05:31.065Z,98715.58
2022-09-15T18:10:35.917Z,98718.20
2022-09-15T18:15:38.591Z,98721.48
2022-09-15T18:20:41.812Z,98723.96
2022-09-15T18:25:44.925Z,98732.33
2022-09-15T18:30:49.509Z,98730.89
2022-09-15T18:35:58.948Z,98734.11
2022-09-15T18:41:02.355Z,98732.52
2022-09-15T18:46:05.044Z,98735.21
2022-09-15T18:51:09.173Z,98733.22
2022-09-15T18:56:14.333Z,98735.38
2022-09-15T19:01:18.063Z,98737.24
2022-09-15T19:06:21.054Z,98734.74
2022-09-15T19:11:23.756Z,98733.29
2022-09-15T19:16:46.591Z,98739.21
2022-09-15T19:21:50.275Z,98734.93
2022-09-15T19:26:52.948Z,98729.98
2022-09-15T19:31:55.577Z,98733.82
2022-09-15T19:36:58.230Z,98735.91
2022-09-15T19:42:00.943Z,98736.55
2022-09-15T19:47:03.944Z,98738.52
2022-09-15T19:52:06.749Z,98737.67
2022-09-15T19:57:09.553Z,98742.48
2022-09-15T20:02:12.286Z,98740.29
2022-09-15T20:07:14.989Z,98751.02
2022-09-15T20:12:18.264Z,98756.77
2022-09-15T20:17:21.059Z,98753.51
2022-09-15T20:22:24.065Z,98750.19
2022-09-15T20:27:26.971Z,98753.79
2022-09-15T20:32:29.769Z,98752.38
2022-09-15T20:37:37.225Z,98754.36
2022-09-15T20:42:40.499Z,98753.37
2022-09-15T20:47:43.118Z,98747.46
2022-09-15T20:52:45.766Z,98750.55
2022-09-15T20:57:49.123Z,98749.35
2022-09-15T21:02:52.028Z,98755.67
2022-09-15T21:07:54.806Z,98754.59
2022-09-15T21:12:57.458Z,98753.56
2022-09-15T21:18:01.833Z,98749.23
2022-09-15T21:23:04.476Z,98744.05
2022-09-15T21:28:07.954Z,98750.94
2022-09-15T21:33:10.767Z,98746.98
2022-09-15T21:38:13.662Z,98750.88
2022-09-15T21:43:17.493Z,98743.04
2022-09-15T21:48:20.695Z,98741.56
2022-09-15T21:53:23.853Z,98741.20
2022-09-15T21:58:27.115Z,98740.38
2022-09-15T22:03:30.225Z,98738.11
2022-09-15T22:08:32.921Z,98734.23
2022-09-15T22:13:37.361Z,98736.09
2022-09-15T22:18:41.502Z,98732.84
2022-09-15T22:23:45.622Z,98729.77
2022-09-15T22:28:48.302Z,98729.88
2022-09-15T22:33:51.437Z,98726.20
2022-09-15T22:38:54.897Z,98720.65
2022-09-15T22:43:57.750Z,98720.89
2022-09-15T22:49:01.014Z,98727.02
2022-09-15T22:54:04.275Z,98731.17
2022-09-15T22:59:06.941Z,98716.69
2022-09-15T23:04:09.671Z,98714.35
2022-09-15T23:09:12.723Z,98716.91
2022-09-15T23:14:17.314Z,98717.77
2022-09-15T23:19:20.008Z,98720.30
2022-09-15T23:24:23.372Z,98721.01
2022-09-15T23:29:26.543Z,98719.59
2022-09-15T23:34:29.249Z,98723.77
2022-09-15T23:39:31.942Z,98732.32
2022-09-15T23:44:34.562Z,98729.45
2022-09-15T23:49:37.179Z,98729.75
2022-09-15T23:54:40.241Z,98724.20
2022-09-15T23:59:43.052Z,98725.20
